Time;durP1;ratioP1;P1;durP2;ratioP2;P2;SDS_P1;SDS_P2;PMS_P1;PMS_P2;Temp;Humidity;BMP_temperature;BMP_pressure;BME280_temperature;BME280_humidity;BME280_pressure;Samples;Min_cycle;Max_cycle;Signal;HPM_P1;HPM_P2
2022/07/17 00:00:21;;;;;;;6.65;3.50;;;;;;;26.32;43.87;99576.41;5011352;28;20092;-89
2022/07/17 00:02:50;;;;;;;4.13;3.70;;;;;;;26.60;44.08;99613.63;5012868;28;20029;-89
2022/07/17 00:05:16;;;;;;;4.95;4.45;;;;;;;26.80;43.85;99630.84;5017723;28;20089;-89
2022/07/17 00:07:41;;;;;;;4.68;4.22;;;;;;;26.23;43.51;99530.19;5030500;28;20030;-88
2022/07/17 00:10:07;;;;;;;5.97;3.58;;;;;;;27.08;43.41;99650.97;5031646;28;20025;-89
2022/07/17 00:12:33;;;;;;;4.10;3.75;;;;;;;26.51;43.10;99544.91;5021267;28;20025;-89
2022/07/17 00:14:58;;;;;;;5.45;3.90;;;;;;;27.04;42.86;99661.56;5015817;28;20109;-89
2022/07/17 00:17:24;;;;;;;6.68;3.63;;;;;;;27.16;42.87;99644.94;5014654;28;20083;-89
2022/07/17 00:19:49;;;;;;;6.97;3.50;;;;;;;26.37;43.12;99518.75;5015913;28;20037;-89
2022/07/17 00:22:15;;;;;;;6.32;4.20;;;;;;;26.06;43.21;99486.47;5014897;28;20022;-89
2022/07/17 00:24:40;;;;;;;3.60;3.30;;;;;;;27.15;42.89;99654.16;5014753;28;20032;-89
2022/07/17 00:27:06;;;;;;;4.90;3.50;;;;;;;26.39;42.78;99544.47;5014710;28;20028;-89
2022/07/17 00:29:32;;;;;;;3.88;3.42;;;;;;;26.64;42.42;99569.72;5014697;28;20022;-89
2022/07/17 00:31:57;;;;;;;4.97;3.60;;;;;;;26.36;42.49;99538.81;5031998;28;20022;-89
2022/07/17 00:34:22;;;;;;;3.85;3.33;;;;;;;26.88;42.59;99627.53;5015270;28;20022;-89
2022/07/17 00:36:48;;;;;;;6.38;3.80;;;;;;;26.66;42.44;99587.31;5014735;28;20590;-89
2022/07/17 00:39:14;;;;;;;7.45;4.28;;;;;;;26.94;42.55;99623.69;5015402;28;20022;-89
2022/07/17 00:41:39;;;;;;;5.65;3.75;;;;;;;26.72;42.67;99605.13;5014511;28;20018;-89
2022/07/17 00:44:09;;;;;;;6.60;3.90;;;;;;;26.73;42.74;99604.06;5015185;28;20483;-89
2022/07/17 00:46:35;;;;;;;5.75;3.63;;;;;;;26.80;42.68;99614.59;5014201;28;20117;-89
2022/07/17 00:49:02;;;;;;;4.05;3.53;;;;;;;26.42;42.55;99562.03;5014201;28;20057;-89
2022/07/17 00:51:27;;;;;;;4.15;3.83;;;;;;;26.80;42.69;99638.97;5013973;28;20112;-89
2022/07/17 00:53:55;;;;;;;4.18;3.70;;;;;;;26.48;42.88;99593.41;5013951;28;20026;-89
2022/07/17 00:56:22;;;;;;;4.10;3.78;;;;;;;27.01;42.82;99664.03;5014150;28;20518;-89
2022/07/17 00:58:49;;;;;;;6.57;4.18;;;;;;;26.34;43.07;99565.34;5014002;28;20034;-89
2022/07/17 01:01:15;;;;;;;4.50;4.15;;;;;;;26.31;42.92;99576.72;5013662;28;20025;-89
2022/07/17 01:03:40;;;;;;;4.53;4.03;;;;;;;25.84;43.16;99492.25;5014472;28;20071;-89
2022/07/17 01:06:06;;;;;;;7.47;4.18;;;;;;;26.82;43.24;99661.19;5021111;28;20513;-89
2022/07/17 01:08:32;;;;;;;4.70;4.13;;;;;;;26.80;43.30;99685.84;5046159;28;20029;-88
2022/07/17 01:10:57;;;;;;;6.78;4.10;;;;;;;26.75;43.33;99666.06;5035959;28;20026;-89
2022/07/17 01:13:23;;;;;;;4.38;3.97;;;;;;;26.75;43.40;99666.06;5016368;28;20030;-89
2022/07/17 01:15:49;;;;;;;5.57;3.78;;;;;;;26.70;43.49;99663.41;5013937;28;20030;-89
2022/07/17 01:18:15;;;;;;;4.68;4.05;;;;;;;26.69;43.63;99670.72;5015076;28;20029;-88
2022/07/17 01:20:43;;;;;;;4.22;3.90;;;;;;;25.88;43.79;99584.50;5014782;28;20415;-89
2022/07/17 01:23:10;;;;;;;4.60;4.20;;;;;;;25.87;43.92;99602.63;5013328;28;20087;-89
2022/07/17 01:25:35;;;;;;;5.25;4.28;;;;;;;26.13;44.16;99632.28;5014628;28;20515;-89
2022/07/17 01:28:02;;;;;;;6.43;4.18;;;;;;;25.93;44.47;99612.31;5014327;28;20021;-89
2022/07/17 01:30:28;;;;;;;5.28;4.03;;;;;;;26.19;44.57;99671.78;5013430;28;20048;-89
2022/07/17 01:32:53;;;;;;;4.32;3.92;;;;;;;25.95;44.47;99653.44;5014180;28;20489;-89
2022/07/17 01:35:19;;;;;;;5.95;4.28;;;;;;;24.99;44.67;99508.50;5013308;28;20033;-89
2022/07/17 01:37:45;;;;;;;6.70;4.40;;;;;;;26.15;44.95;99678.81;5013416;28;20459;-89
2022/07/17 01:40:13;;;;;;;5.80;4.53;;;;;;;26.04;44.82;99685.38;5013263;28;20026;-88
2022/07/17 01:42:41;;;;;;;4.82;4.43;;;;;;;25.97;45.34;99678.31;5013144;28;20120;-89
2022/07/17 01:45:07;;;;;;;7.53;4.45;;;;;;;25.26;45.35;99566.78;5013374;28;20502;-88
2022/07/17 01:47:34;;;;;;;6.07;4.30;;;;;;;25.29;45.78;99580.59;5014400;28;20029;-88
2022/07/17 01:50:00;;;;;;;5.93;4.65;;;;;;;25.36;45.46;99595.72;5014186;28;20018;-89
2022/07/17 01:52:25;;;;;;;5.75;4.60;;;;;;;25.05;45.71;99566.03;5012934;28;20048;-89
2022/07/17 01:54:52;;;;;;;5.75;4.80;;;;;;;25.36;45.96;99611.94;5012901;28;20082;-89
2022/07/17 01:57:18;;;;;;;4.70;4.20;;;;;;;25.02;45.72;99558.47;5012577;28;20050;-89
2022/07/17 01:59:43;;;;;;;6.75;4.55;;;;;;;25.17;45.86;99585.47;5013926;28;20438;-88
2022/07/17 02:02:10;;;;;;;5.47;4.50;;;;;;;25.80;45.95;99691.38;5012979;28;20033;-89
2022/07/17 02:04:37;;;;;;;6.32;4.43;;;;;;;25.72;46.17;99712.75;5013892;28;20048;-88
2022/07/17 02:07:04;;;;;;;5.32;4.65;;;;;;;25.65;46.24;99708.44;5012675;28;20045;-89
2022/07/17 02:09:30;;;;;;;5.47;4.38;;;;;;;25.08;46.10;99608.72;5013884;28;20024;-89
2022/07/17 02:11:56;;;;;;;4.97;4.57;;;;;;;25.56;46.06;99693.81;5012372;28;20079;-89
2022/07/17 02:14:21;;;;;;;5.28;4.78;;;;;;;25.36;46.52;99674.09;5012532;28;20022;-89
2022/07/17 02:16:47;;;;;;;9.82;5.10;;;;;;;25.06;46.36;99624.38;5012496;28;20060;-88
2022/07/17 02:19:12;;;;;;;4.93;4.53;;;;;;;24.77;46.63;99605.16;5013663;28;20024;-89
2022/07/17 02:21:38;;;;;;;5.00;4.45;;;;;;;25.38;46.82;99701.69;5013411;28;20056;-89
2022/07/17 02:24:04;;;;;;;6.10;4.30;;;;;;;25.15;46.81;99671.38;5013508;28;20486;-89
2022/07/17 02:26:29;;;;;;;5.00;4.50;;;;;;;24.69;46.83;99593.03;5012439;28;20026;-88
2022/07/17 02:28:54;;;;;;;5.47;4.65;;;;;;;24.77;47.04;99615.16;5013564;28;20029;-89
2022/07/17 02:31:20;;;;;;;5.90;4.53;;;;;;;24.74;46.82;99635.41;5012566;28;20017;-89
2022/07/17 02:33:45;;;;;;;6.65;4.00;;;;;;;24.71;46.71;99612.47;5011439;28;20017;-89
2022/07/17 02:36:11;;;;;;;7.30;4.57;;;;;;;24.15;46.63;99511.66;5012073;28;20018;-88
2022/07/17 02:38:36;;;;;;;6.00;4.82;;;;;;;25.22;46.91;99703.53;5012117;28;20112;-88
2022/07/17 02:41:02;;;;;;;6.03;4.43;;;;;;;23.89;46.97;99516.22;5012104;28;20030;-89
2022/07/17 02:43:27;;;;;;;4.72;4.32;;;;;;;23.83;46.98;99525.34;5013070;28;20018;-88
2022/07/17 02:45:53;;;;;;;6.68;4.20;;;;;;;25.22;46.66;99712.47;5012811;28;20033;-88
2022/07/17 02:48:18;;;;;;;4.50;4.10;;;;;;;24.51;46.83;99606.19;5013065;28;20033;-89
2022/07/17 02:50:44;;;;;;;5.03;4.43;;;;;;;24.97;46.98;99686.25;5028446;28;20494;-88
2022/07/17 02:53:09;;;;;;;5.05;4.35;;;;;;;24.71;46.89;99652.16;5011734;28;20529;-89
2022/07/17 02:55:34;;;;;;;6.82;4.18;;;;;;;25.10;46.94;99713.81;5012971;28;20021;-88
2022/07/17 02:58:00;;;;;;;6.65;4.10;;;;;;;25.06;46.70;99712.72;5011591;28;20434;-89
2022/07/17 03:00:26;;;;;;;5.10;4.40;;;;;;;24.34;47.28;99623.44;5012726;28;20024;-89
2022/07/17 03:02:53;;;;;;;5.65;4.53;;;;;;;24.98;46.98;99709.47;5011896;28;20026;-89
2022/07/17 03:05:18;;;;;;;6.72;4.55;;;;;;;24.58;47.46;99661.59;5012059;28;20036;-88
2022/07/17 03:07:45;;;;;;;6.65;4.28;;;;;;;24.93;47.47;99708.63;5012856;28;20077;-89
2022/07/17 03:10:12;;;;;;;5.05;4.53;;;;;;;24.62;47.44;99676.16;5011918;28;20032;-89
2022/07/17 03:12:37;;;;;;;7.75;4.55;;;;;;;24.50;47.28;99645.06;5015825;28;20026;-88
2022/07/17 03:15:04;;;;;;;8.63;4.70;;;;;;;24.63;47.33;99690.47;5021627;28;20037;-89
2022/07/17 03:17:29;;;;;;;5.05;4.55;;;;;;;23.47;47.62;99505.50;5035016;28;20037;-89
2022/07/17 03:19:55;;;;;;;9.65;5.28;;;;;;;24.77;47.77;99715.09;5022434;28;20030;-88
2022/07/17 03:22:23;;;;;;;5.47;4.95;;;;;;;23.94;47.77;99599.81;5011756;28;20021;-88
2022/07/17 03:24:49;;;;;;;5.18;4.53;;;;;;;24.26;47.79;99653.63;5028529;28;20034;-89
2022/07/17 03:27:15;;;;;;;5.18;4.70;;;;;;;23.71;48.14;99584.88;5011341;28;20064;-88
2022/07/17 03:29:40;;;;;;;5.25;4.75;;;;;;;22.80;48.25;99455.84;5011715;28;20487;-88
2022/07/17 03:32:06;;;;;;;6.43;4.43;;;;;;;24.10;48.35;99665.44;5011544;28;20025;-88
2022/07/17 03:34:32;;;;;;;6.15;4.50;;;;;;;23.91;48.54;99654.28;5011470;28;20026;-89
2022/07/17 03:36:57;;;;;;;5.43;4.30;;;;;;;23.82;48.55;99623.50;5011382;28;20029;-88
2022/07/17 03:39:22;;;;;;;6.53;4.90;;;;;;;24.09;48.73;99670.00;5011276;28;20022;-88
2022/07/17 03:41:48;;;;;;;5.40;4.90;;;;;;;23.95;48.78;99649.19;5012722;28;20079;-89
2022/07/17 03:44:13;;;;;;;6.70;5.25;;;;;;;23.93;49.04;99670.22;5013181;28;20076;-89
2022/07/17 03:46:39;;;;;;;7.72;4.40;;;;;;;23.62;48.62;99593.72;5015454;28;20029;-89
2022/07/17 03:49:04;;;;;;;7.70;4.78;;;;;;;24.18;48.69;99681.09;5015410;28;20025;-88
2022/07/17 03:51:30;;;;;;;5.75;4.35;;;;;;;23.64;48.77;99605.88;5015010;28;20036;-88
2022/07/17 03:53:55;;;;;;;4.90;4.22;;;;;;;24.43;49.02;99728.19;5015173;28;20030;-88
2022/07/17 03:56:21;;;;;;;6.57;4.82;;;;;;;24.12;48.78;99686.75;5015279;28;20507;-89
2022/07/17 03:58:46;;;;;;;8.63;5.07;;;;;;;24.05;48.97;99662.72;5032304;28;20486;-88
2022/07/17 04:01:12;;;;;;;5.97;4.72;;;;;;;23.75;49.05;99647.16;5015294;28;20026;-88
2022/07/17 04:03:37;;;;;;;5.60;4.57;;;;;;;23.39;49.14;99598.44;5015200;28;20018;-88
2022/07/17 04:06:03;;;;;;;7.05;4.70;;;;;;;24.00;48.94;99687.78;5014917;28;20025;-88
2022/07/17 04:08:28;;;;;;;5.32;4.53;;;;;;;24.42;49.14;99740.06;5014902;28;20188;-88
2022/07/17 04:10:54;;;;;;;7.93;5.15;;;;;;;24.15;49.10;99740.97;5014912;28;20050;-88
2022/07/17 04:13:19;;;;;;;7.53;5.63;;;;;;;24.31;49.23;99750.81;5014826;28;20025;-88
2022/07/17 04:15:56;;;;;;;7.05;5.43;;;;;;;24.08;48.91;99716.94;5031387;28;20026;-88
2022/07/17 04:18:27;;;;;;;7.00;5.03;;;;;;;23.85;49.19;99659.91;5014931;28;20026;-88
2022/07/17 04:20:55;;;;;;;;;;;;;;;24.35;49.19;99756.50;5016146;28;20030;-88
2022/07/17 04:23:20;;;;;;;6.30;5.22;;;;;;;24.08;48.95;99694.56;5015697;28;19988;-88
2022/07/17 04:25:46;;;;;;;6.40;4.70;;;;;;;24.22;48.80;99702.97;5015905;28;20100;-89
2022/07/17 04:28:12;;;;;;;6.38;4.90;;;;;;;24.64;48.55;99765.81;5015796;28;20022;-88
2022/07/17 04:30:37;;;;;;;6.95;4.97;;;;;;;24.49;48.57;99748.72;5014495;28;20030;-88
2022/07/17 04:33:03;;;;;;;5.55;4.80;;;;;;;24.62;48.54;99776.06;5015843;28;20041;-89
2022/07/17 04:35:29;;;;;;;7.35;4.90;;;;;;;24.05;48.54;99666.22;5031046;28;20033;-88
2022/07/17 04:37:54;;;;;;;8.80;5.22;;;;;;;24.65;48.21;99739.63;5014307;28;20390;-89
2022/07/17 04:40:20;;;;;;;7.35;4.68;;;;;;;24.26;48.27;99688.69;5014263;28;20079;-88
2022/07/17 04:42:46;;;;;;;6.55;4.30;;;;;;;24.65;48.02;99721.53;5014040;28;20026;-88
2022/07/17 04:45:13;;;;;;;7.28;4.78;;;;;;;24.60;48.13;99718.81;5014062;28;20030;-88
2022/07/17 04:47:38;;;;;;;7.30;4.38;;;;;;;24.01;47.80;99643.53;5030812;28;20060;-89
2022/07/17 04:50:04;;;;;;;7.32;4.80;;;;;;;24.85;48.16;99745.06;5014130;28;20058;-89
2022/07/17 04:52:29;;;;;;;5.88;3.97;;;;;;;23.74;47.96;99581.66;5013802;28;20569;-88
2022/07/17 04:54:55;;;;;;;8.93;4.60;;;;;;;23.88;47.84;99579.31;5013932;28;20022;-88
2022/07/17 04:57:20;;;;;;;7.50;4.20;;;;;;;24.52;47.78;99676.13;5013145;28;20045;-89
2022/07/17 04:59:46;;;;;;;5.57;4.60;;;;;;;24.78;47.48;99701.31;5014143;28;20506;-89
2022/07/17 05:02:11;;;;;;;5.32;4.10;;;;;;;25.14;47.69;99753.53;5013814;28;20035;-89
2022/07/17 05:04:37;;;;;;;5.57;4.78;;;;;;;25.48;47.53;99802.50;5021948;28;20029;-89
2022/07/17 05:07:02;;;;;;;4.60;3.88;;;;;;;25.58;47.37;99786.28;5043341;28;20026;-89
2022/07/17 05:09:28;;;;;;;4.63;4.07;;;;;;;25.33;47.30;99737.63;5020733;28;20037;-89
2022/07/17 05:11:53;;;;;;;6.68;4.40;;;;;;;25.24;47.15;99698.69;5016097;28;20032;-89
2022/07/17 05:14:19;;;;;;;9.18;4.00;;;;;;;24.68;47.22;99604.09;5014504;28;20479;-89
2022/07/17 05:16:44;;;;;;;5.63;4.10;;;;;;;25.86;47.14;99793.06;5014036;28;20422;-89
2022/07/17 05:19:10;;;;;;;5.82;3.70;;;;;;;26.02;46.98;99793.06;5030131;28;20057;-88
2022/07/17 05:21:35;;;;;;;6.03;3.63;;;;;;;25.50;46.77;99705.72;5013641;28;20073;-88
2022/07/17 05:24:01;;;;;;;5.90;3.30;;;;;;;25.03;46.50;99619.50;5013613;28;20026;-88
2022/07/17 05:26:26;;;;;;;7.03;3.53;;;;;;;26.25;46.53;99787.88;5013555;28;20087;-89
2022/07/17 05:28:52;;;;;;;9.13;3.75;;;;;;;25.81;45.84;99711.09;5014485;28;20041;-88
2022/07/17 05:31:17;;;;;;;3.85;3.22;;;;;;;25.84;45.52;99700.53;5014502;28;20034;-88
2022/07/17 05:33:43;;;;;;;3.67;3.13;;;;;;;26.53;44.93;99793.75;5013491;28;20113;-88
2022/07/17 05:36:08;;;;;;;3.92;3.10;;;;;;;26.23;44.62;99760.25;5014708;28;20501;-88
2022/07/17 05:38:34;;;;;;;4.40;2.90;;;;;;;25.99;44.10;99702.41;5014317;28;20079;-88
2022/07/17 05:41:00;;;;;;;7.38;3.58;;;;;;;26.03;43.35;99673.72;5013349;28;20071;-88
2022/07/17 05:43:25;;;;;;;4.82;3.15;;;;;;;25.68;43.31;99625.94;5013313;28;20018;-89
2022/07/17 05:45:56;;;;;;;5.03;3.17;;;;;;;25.87;43.04;99632.38;5012957;28;20030;-89
2022/07/17 05:48:22;;;;;;;5.15;3.33;;;;;;;26.24;42.62;99704.22;5029624;28;20052;-88
2022/07/17 05:50:47;;;;;;;6.57;3.90;;;;;;;26.59;41.89;99758.25;5029184;28;20034;-89
2022/07/17 05:53:14;;;;;;;5.18;3.63;;;;;;;26.68;42.07;99739.53;5013035;28;20058;-88
2022/07/17 05:55:39;;;;;;;6.80;3.75;;;;;;;27.13;41.80;99808.16;5013136;28;20108;-88
2022/07/17 05:58:05;;;;;;;6.15;3.95;;;;;;;26.98;41.52;99770.28;5029310;28;20514;-88
2022/07/17 06:00:30;;;;;;;3.83;3.50;;;;;;;27.17;41.18;99798.34;5013161;28;20040;-88
2022/07/17 06:02:55;;;;;;;5.10;3.78;;;;;;;26.77;41.00;99740.59;5014283;28;20033;-88
2022/07/17 06:05:21;;;;;;;3.97;3.58;;;;;;;26.77;41.33;99729.75;5014072;28;20025;-88
2022/07/17 06:07:47;;;;;;;6.45;4.32;;;;;;;27.32;40.76;99800.16;5014811;28;20080;-88
2022/07/17 06:10:12;;;;;;;4.30;3.70;;;;;;;26.65;40.65;99714.88;5013733;28;20069;-88
2022/07/17 06:12:38;;;;;;;4.38;3.60;;;;;;;27.28;40.34;99818.88;5016836;28;20033;-88
2022/07/17 06:15:04;;;;;;;4.55;4.03;;;;;;;27.03;40.27;99771.06;5029431;28;20026;-88
2022/07/17 06:17:29;;;;;;;4.32;3.88;;;;;;;26.58;40.15;99696.25;5031286;28;20490;-88
2022/07/17 06:19:54;;;;;;;5.97;3.67;;;;;;;26.94;40.16;99752.94;5025227;28;20048;-88
2022/07/17 06:22:21;;;;;;;5.20;3.85;;;;;;;27.38;40.22;99812.59;5016919;28;20033;-88
2022/07/17 06:24:46;;;;;;;6.05;3.63;;;;;;;26.59;40.26;99684.31;5018757;28;20462;-89
2022/07/17 06:27:13;;;;;;;5.30;4.10;;;;;;;27.08;40.19;99760.19;5017622;28;20037;-87
2022/07/17 06:29:38;;;;;;;6.60;3.75;;;;;;;26.77;40.00;99699.13;5016782;28;20157;-88
2022/07/17 06:32:04;;;;;;;4.60;3.47;;;;;;;26.20;40.19;99625.47;5015904;28;20113;-88
2022/07/17 06:34:29;;;;;;;6.75;3.92;;;;;;;26.01;40.31;99577.66;5028890;28;20026;-88
2022/07/17 06:36:55;;;;;;;5.05;4.47;;;;;;;27.14;40.57;99752.84;5012635;28;20030;-88
2022/07/17 06:39:20;;;;;;;5.38;4.88;;;;;;;27.32;40.68;99792.81;5012530;28;20030;-89
2022/07/17 06:41:46;;;;;;;7.05;4.25;;;;;;;26.95;41.00;99714.72;5012213;28;20053;-89
2022/07/17 06:44:11;;;;;;;6.57;4.72;;;;;;;26.55;40.90;99665.13;5012045;28;20022;-88
2022/07/17 06:46:37;;;;;;;5.32;4.80;;;;;;;27.03;40.88;99729.59;5028133;28;20029;-88
2022/07/17 06:49:02;;;;;;;6.50;4.97;;;;;;;27.68;40.69;99831.41;5013372;28;20504;-89
2022/07/17 06:51:27;;;;;;;8.38;4.43;;;;;;;27.44;40.51;99782.44;5028579;28;20410;-88
2022/07/17 06:53:53;;;;;;;7.40;4.57;;;;;;;27.67;40.48;99807.25;5015339;28;20026;-88
2022/07/17 06:56:18;;;;;;;6.40;5.40;;;;;;;27.13;40.38;99708.66;5018465;28;20416;-89
2022/07/17 06:58:44;;;;;;;4.72;4.18;;;;;;;27.95;40.14;99838.22;5021034;28;20418;-89
2022/07/17 07:01:09;;;;;;;11.23;5.07;;;;;;;26.88;39.71;99652.72;5014100;28;20116;-89
2022/07/17 07:03:35;;;;;;;7.25;4.50;;;;;;;26.86;39.88;99665.75;5013033;28;20494;-88
2022/07/17 07:06:01;;;;;;;5.75;4.63;;;;;;;26.77;39.67;99632.22;5011819;28;20490;-88
2022/07/17 07:08:26;;;;;;;4.30;3.95;;;;;;;27.42;39.31;99752.06;5012085;28;20022;-88
2022/07/17 07:10:52;;;;;;;6.00;3.85;;;;;;;27.88;38.83;99799.75;5011709;28;20029;-88
2022/07/17 07:13:17;;;;;;;4.25;3.83;;;;;;;28.08;38.65;99815.84;5011934;28;20509;-89
2022/07/17 07:15:42;;;;;;;4.20;3.80;;;;;;;27.54;38.37;99732.75;5013164;28;20033;-88
2022/07/17 07:18:08;;;;;;;7.03;4.05;;;;;;;27.77;38.22;99761.84;5011452;28;20498;-88
2022/07/17 07:20:34;;;;;;;7.13;4.10;;;;;;;28.02;38.30;99819.69;5017661;28;20029;-88
2022/07/17 07:22:59;;;;;;;4.07;3.63;;;;;;;27.62;38.27;99705.03;5018309;28;20029;-88
2022/07/17 07:25:24;;;;;;;4.82;4.18;;;;;;;27.89;38.08;99755.22;5019487;28;20076;-88
2022/07/17 07:27:50;;;;;;;6.10;3.90;;;;;;;28.14;37.94;99773.97;5019520;28;20533;-88
2022/07/17 07:30:15;;;;;;;4.47;4.03;;;;;;;28.47;37.75;99815.75;5018318;28;20030;-88
2022/07/17 07:32:41;;;;;;;3.60;3.35;;;;;;;27.79;37.91;99715.44;5018107;28;20120;-88
2022/07/17 07:35:07;;;;;;;4.22;3.53;;;;;;;28.16;37.78;99748.16;5018070;28;20415;-88
2022/07/17 07:37:33;;;;;;;5.05;4.07;;;;;;;28.40;37.36;99786.22;5018302;28;20052;-88
2022/07/17 07:39:59;;;;;;;3.83;3.33;;;;;;;28.48;36.95;99792.91;5018407;28;20030;-88
2022/07/17 07:42:25;;;;;;;4.40;3.33;;;;;;;28.18;37.03;99720.72;5034943;28;20400;-88
2022/07/17 07:44:51;;;;;;;4.43;3.60;;;;;;;28.46;37.04;99760.59;5018034;28;20052;-88
2022/07/17 07:47:17;;;;;;;7.43;3.50;;;;;;;28.78;36.52;99794.44;5018442;28;20053;-89
2022/07/17 07:49:43;;;;;;;4.63;3.50;;;;;;;28.76;36.80;99791.19;5017827;28;20049;-88
2022/07/17 07:52:08;;;;;;;6.63;3.90;;;;;;;29.16;36.45;99827.13;5017717;28;20479;-88
2022/07/17 07:54:34;;;;;;;4.68;3.25;;;;;;;29.13;36.01;99847.56;5017616;28;20096;-88
2022/07/17 07:56:59;;;;;;;5.68;3.10;;;;;;;28.91;35.56;99779.34;5017564;28;20053;-88
2022/07/17 07:59:25;;;;;;;4.65;3.00;;;;;;;28.00;35.09;99623.75;5017542;28;20478;-88
2022/07/17 08:01:50;;;;;;;6.32;3.20;;;;;;;29.14;34.99;99792.09;5017553;28;20030;-88
2022/07/17 08:04:16;;;;;;;4.25;2.85;;;;;;;28.97;34.31;99759.13;5018735;28;20490;-88
2022/07/17 08:06:42;;;;;;;4.43;3.08;;;;;;;29.13;33.79;99766.00;5018869;28;20037;-88
2022/07/17 08:09:08;;;;;;;6.40;3.08;;;;;;;29.40;33.45;99792.50;5017616;28;20462;-88
2022/07/17 08:11:34;;;;;;;8.70;3.78;;;;;;;29.10;33.85;99740.22;5019039;28;20053;-88
2022/07/17 08:14:00;;;;;;;3.38;3.10;;;;;;;29.78;33.85;99845.00;5017363;28;20026;-89
2022/07/17 08:16:25;;;;;;;6.43;4.13;;;;;;;29.29;33.65;99745.63;5017277;28;20121;-89
2022/07/17 08:18:51;;;;;;;4.80;3.30;;;;;;;29.96;33.84;99837.88;5017296;28;20033;-88
2022/07/17 08:21:16;;;;;;;4.60;3.50;;;;;;;30.00;33.53;99847.88;5017280;28;20029;-89
2022/07/17 08:23:42;;;;;;;3.53;3.22;;;;;;;30.06;33.49;99831.47;5033751;28;20022;-88
2022/07/17 08:26:07;;;;;;;3.97;3.28;;;;;;;28.84;32.93;99629.41;5017567;28;20028;-88
2022/07/17 08:28:33;;;;;;;4.70;3.20;;;;;;;29.31;32.70;99688.19;5018773;28;20514;-88
2022/07/17 08:30:58;;;;;;;5.55;3.17;;;;;;;30.10;31.99;99797.09;5015253;28;20037;-88
2022/07/17 08:33:24;;;;;;;3.85;2.80;;;;;;;30.07;31.88;99787.63;5013994;28;20028;-88
2022/07/17 08:35:49;;;;;;;4.93;2.22;;;;;;;29.64;30.22;99687.09;5014394;28;20033;-88
2022/07/17 08:38:14;;;;;;;4.28;2.30;;;;;;;29.79;29.18;99724.13;5014187;28;20026;-88
2022/07/17 08:40:43;;;;;;;5.93;2.20;;;;;;;30.32;28.26;99732.63;5014017;28;20120;-88
2022/07/17 08:43:09;;;;;;;3.22;2.28;;;;;;;30.46;28.08;99753.63;5015132;28;20505;-88
2022/07/17 08:45:34;;;;;;;5.20;2.53;;;;;;;30.10;28.17;99699.06;5017123;28;20184;-88
2022/07/17 08:48:00;;;;;;;5.15;2.85;;;;;;;30.73;28.14;99799.16;5030162;28;20033;-88
2022/07/17 08:50:29;;;;;;;4.35;2.40;;;;;;;29.62;28.19;99601.41;5017394;28;20396;-88
2022/07/17 08:52:55;;;;;;;2.63;2.35;;;;;;;30.50;27.51;99714.59;5015956;28;20026;-88
2022/07/17 08:55:21;;;;;;;3.42;2.47;;;;;;;31.19;26.39;99816.16;5015187;28;20060;-88
2022/07/17 08:57:46;;;;;;;4.15;2.13;;;;;;;31.36;26.62;99829.16;5014215;28;20073;-88
2022/07/17 09:00:15;;;;;;;5.03;2.85;;;;;;;31.39;27.30;99814.09;5030107;28;20510;-88
2022/07/17 09:02:56;;;;;;;4.82;2.70;;;;;;;31.47;27.37;99811.41;5013487;28;20025;-88
2022/07/17 09:05:23;;;;;;;2.35;2.03;;;;;;;31.43;26.54;99798.72;5013538;28;20032;-88
2022/07/17 09:07:49;;;;;;;3.15;2.00;;;;;;;31.08;25.45;99713.00;5013630;28;20029;-88
2022/07/17 09:10:14;;;;;;;2.95;2.00;;;;;;;31.28;24.29;99739.84;5013438;28;20022;-88
2022/07/17 09:12:40;;;;;;;2.80;1.55;;;;;;;31.38;24.27;99716.97;5014438;28;20104;-88
2022/07/17 09:15:19;;;;;;;2.38;1.80;;;;;;;31.68;23.92;99737.22;5013153;28;20025;-88
2022/07/17 09:17:52;;;;;;;2.20;1.90;;;;;;;32.26;24.07;99815.50;5013489;28;20026;-88
2022/07/17 09:20:21;;;;;;;6.65;2.72;;;;;;;31.85;24.81;99724.47;5014227;28;20045;-88
2022/07/17 09:23:01;;;;;;;5.32;2.65;;;;;;;32.58;24.96;99820.59;5012544;28;20021;-88
2022/07/17 09:25:39;;;;;;;3.38;2.33;;;;;;;32.74;25.15;99818.25;5013062;28;20092;-88
2022/07/17 09:28:07;;;;;;;2.88;2.45;;;;;;;32.88;25.12;99826.34;5012634;28;20127;-88
2022/07/17 09:30:35;;;;;;;2.92;2.47;;;;;;;32.90;24.95;99802.22;5014061;28;20061;-87
2022/07/17 09:33:00;;;;;;;2.45;2.25;;;;;;;33.22;24.98;99839.25;5014014;28;20033;-88
2022/07/17 09:35:27;;;;;;;5.28;3.15;;;;;;;32.96;24.51;99773.56;5013219;28;20018;-88
2022/07/17 09:37:54;;;;;;;2.95;2.20;;;;;;;33.07;24.01;99761.19;5013721;28;20018;-89
2022/07/17 09:43:05;;;;;;;4.00;2.90;;;;;;;32.96;24.45;99721.59;5013338;28;20029;-88
2022/07/17 09:45:32;;;;;;;4.75;3.03;;;;;;;33.76;24.46;99824.94;5013741;28;20029;-88
2022/07/17 09:47:58;;;;;;;5.22;2.67;;;;;;;33.62;24.62;99804.34;5014148;28;20101;-88
2022/07/17 09:50:26;;;;;;;4.03;2.95;;;;;;;33.17;24.99;99728.03;5012699;28;20120;-88
2022/07/17 09:52:55;;;;;;;3.33;2.58;;;;;;;33.31;24.64;99734.16;5013742;28;20046;-88
2022/07/17 09:55:26;;;;;;;2.60;2.40;;;;;;;33.82;24.35;99786.44;5010771;28;20054;-88
2022/07/17 09:57:54;;;;;;;3.75;2.50;;;;;;;32.84;23.80;99632.78;5013671;28;20045;-88
2022/07/17 10:00:21;;;;;;;4.93;2.80;;;;;;;33.98;23.73;99755.44;5013523;28;20029;-88
2022/07/17 10:02:48;;;;;;;2.72;2.50;;;;;;;34.53;23.22;99820.38;5013622;28;20034;-89
2022/07/17 10:05:15;;;;;;;10.00;2.40;;;;;;;33.76;23.16;99678.97;5013880;28;20041;-88
2022/07/17 10:07:45;;;;;;;3.15;2.15;;;;;;;34.52;21.81;99772.16;5013686;28;20026;-88
2022/07/17 10:10:12;;;;;;;6.77;3.03;;;;;;;35.02;22.62;99821.56;5013763;28;20036;-88
2022/07/17 10:12:39;;;;;;;2.55;2.33;;;;;;;35.17;22.52;99817.44;5013119;28;20037;-88
2022/07/17 10:15:07;;;;;;;6.50;2.72;;;;;;;34.80;22.27;99753.25;5013569;28;20056;-88
2022/07/17 10:17:33;;;;;;;2.78;2.10;;;;;;;35.35;20.64;99815.38;5012397;28;20112;-88
2022/07/17 10:19:59;;;;;;;2.35;2.00;;;;;;;35.35;19.62;99826.34;5012181;28;20525;-88
2022/07/17 10:22:25;;;;;;;3.55;1.85;;;;;;;35.20;19.62;99783.81;5013030;28;20049;-88
2022/07/17 10:24:56;;;;;;;3.28;2.20;;;;;;;35.34;18.53;99756.91;5011787;28;20022;-88
2022/07/17 10:27:27;;;;;;;4.10;1.95;;;;;;;35.33;18.68;99721.53;5011553;28;20513;-88
2022/07/17 10:30:10;;;;;;;3.60;2.22;;;;;;;35.43;20.30;99767.81;5013290;28;20034;-88
2022/07/17 10:32:36;;;;;;;4.65;2.60;;;;;;;34.88;20.94;99703.03;5015145;28;20033;-88
2022/07/17 10:35:07;;;;;;;3.38;2.10;;;;;;;35.55;20.63;99787.06;5019013;28;20033;-88
2022/07/17 10:37:40;;;;;;;3.60;1.77;;;;;;;35.72;19.51;99744.91;5032587;28;20046;-87
2022/07/17 10:40:09;;;;;;;2.92;1.75;;;;;;;36.21;18.25;99778.75;5029623;28;20065;-88
2022/07/17 10:42:47;;;;;;;8.77;2.10;;;;;;;36.42;18.35;99795.19;5012060;28;20116;-88
2022/07/17 10:45:39;;;;;;;4.47;2.10;;;;;;;36.38;17.35;99774.19;5011805;28;20022;-88
2022/07/17 10:48:15;;;;;;;4.45;1.70;;;;;;;36.53;17.77;99810.09;5010753;28;20034;-88
2022/07/17 10:50:45;;;;;;;1.95;1.73;;;;;;;36.73;17.80;99802.84;5012600;28;20030;-87
2022/07/17 10:53:25;;;;;;;4.43;1.80;;;;;;;36.67;17.13;99776.72;5012426;28;20044;-88
2022/07/17 10:56:04;;;;;;;2.72;1.60;;;;;;;36.71;17.31;99782.31;5010374;28;20068;-88
2022/07/17 10:58:34;;;;;;;2.50;1.77;;;;;;;36.56;17.48;99729.63;5027134;28;20483;-88
2022/07/17 11:01:22;;;;;;;2.78;1.80;;;;;;;37.05;16.01;99743.25;5010890;28;20493;-88
2022/07/17 11:03:49;;;;;;;4.13;1.67;;;;;;;37.31;17.18;99767.66;5011575;28;20499;-87
2022/07/17 11:06:21;;;;;;;4.10;1.83;;;;;;;37.60;15.84;99779.44;5010995;28;20486;-88
2022/07/17 11:08:52;;;;;;;2.28;1.80;;;;;;;37.49;16.42;99773.66;5012334;28;20104;-88
2022/07/17 11:11:23;;;;;;;2.97;1.63;;;;;;;37.29;16.18;99738.84;5012338;28;20029;-88
2022/07/17 11:13:49;;;;;;;1.70;1.50;;;;;;;37.50;16.34;99747.69;5012078;28;20026;-87
2022/07/17 11:16:29;;;;;;;5.10;1.90;;;;;;;37.60;15.20;99760.16;5012077;28;20507;-88
2022/07/17 11:18:55;;;;;;;4.43;1.88;;;;;;;37.00;16.36;99657.38;5011914;28;20454;-88
2022/07/17 11:21:21;;;;;;;4.13;1.98;;;;;;;37.58;15.62;99726.66;5010835;28;20114;-88
2022/07/17 11:23:51;;;;;;;5.78;1.50;;;;;;;38.02;15.00;99753.03;5011059;28;20065;-87
2022/07/17 11:26:18;;;;;;;2.22;1.67;;;;;;;37.21;16.06;99631.25;5012177;28;20033;-87
2022/07/17 11:28:44;;;;;;;3.28;1.88;;;;;;;37.85;15.97;99704.53;5012424;28;20037;-88
2022/07/17 11:31:25;;;;;;;2.10;1.70;;;;;;;38.10;15.13;99731.94;5010611;28;20033;-86
2022/07/17 11:33:54;;;;;;;4.38;1.80;;;;;;;38.12;15.66;99749.72;5010519;28;20030;-88